Salt Lake City, Utah
Traffic Map
Current Weather Conditions
Salt Lake City, Utah
Few Clouds
Few Clouds
20°
Feels Like: 20°
Wind Chill: 20° Ceiling: Unl
Heat Index: 20° Visibility: 10mi
Dew Point: -6° Wind: 7mph
Humidity: 17% Direction: 290° (WNW)
Pressure: 30.13in Gusts: 0mph
Raw Report DataKSLC 220054Z 29006KT 10SM FEW090 20/M06 A3013 RMK AO2 SLP176 T02001056
Traffic Incident Summary
Active as of:
Severity:
Category:
InformationThere was an issue retrieving the traffic information for this location. Please try a different location or try again shortly.
Advertisements